createdAt,value
2022-09-14T00:03:21.336Z,100810.0
2022-09-14T00:08:21.247Z,100800.0
2022-09-14T00:13:21.264Z,100800.0
2022-09-14T00:18:21.258Z,100790.0
2022-09-14T00:23:21.254Z,100780.0
2022-09-14T00:28:21.261Z,100780.0
2022-09-14T00:33:21.265Z,100770.0
2022-09-14T00:38:21.265Z,100760.0
2022-09-14T00:43:21.272Z,100760.0
2022-09-14T00:48:21.277Z,100750.0
2022-09-14T00:53:21.276Z,100740.0
2022-09-14T00:58:21.307Z,100740.0
2022-09-14T01:03:21.292Z,100740.0
2022-09-14T01:08:21.284Z,100740.0
2022-09-14T01:13:21.282Z,100720.0
2022-09-14T01:18:21.288Z,100720.0
2022-09-14T01:23:21.283Z,100720.0
2022-09-14T01:28:21.289Z,100720.0
2022-09-14T01:33:21.293Z,100710.0
2022-09-14T01:38:21.298Z,100710.0
2022-09-14T01:43:21.308Z,100700.0
2022-09-14T01:48:21.300Z,100700.0
2022-09-14T01:53:21.304Z,100700.0
2022-09-14T01:58:21.303Z,100680.0
2022-09-14T02:03:21.309Z,100690.0
2022-09-14T02:08:21.317Z,100690.0
2022-09-14T02:13:21.327Z,100690.0
2022-09-14T02:18:21.317Z,100690.0
2022-09-14T02:23:21.321Z,100690.0
2022-09-14T02:28:21.325Z,100690.0
2022-09-14T02:33:21.330Z,100680.0
2022-09-14T02:38:21.328Z,100700.0
2022-09-14T02:43:21.326Z,100690.0
2022-09-14T02:48:21.330Z,100690.0
2022-09-14T02:53:21.484Z,100690.0
2022-09-14T02:58:21.336Z,100690.0
2022-09-14T03:03:21.349Z,100700.0
2022-09-14T03:08:21.362Z,100690.0
2022-09-14T03:13:21.349Z,100690.0
2022-09-14T03:18:21.357Z,100690.0
2022-09-14T03:23:21.349Z,100690.0
2022-09-14T03:28:21.351Z,100690.0
2022-09-14T03:33:21.357Z,100680.0
2022-09-14T03:38:21.365Z,100670.0
2022-09-14T03:43:21.365Z,100660.0
2022-09-14T03:48:21.359Z,100670.0
2022-09-14T03:53:21.360Z,100650.0
2022-09-14T03:58:21.366Z,100640.0
2022-09-14T04:03:21.522Z,100650.0
2022-09-14T04:08:21.370Z,100650.0
2022-09-14T04:13:21.381Z,100630.0
2022-09-14T04:18:21.376Z,100630.0
2022-09-14T04:23:21.386Z,100630.0
2022-09-14T04:28:21.378Z,100610.0
2022-09-14T04:33:21.384Z,100610.0
2022-09-14T04:38:21.426Z,100610.0
2022-09-14T04:43:21.386Z,100600.0
2022-09-14T04:48:21.391Z,100610.0
2022-09-14T04:53:21.397Z,100610.0
2022-09-14T04:58:21.401Z,100610.0
2022-09-14T05:03:21.398Z,100600.0
2022-09-14T05:08:21.409Z,100600.0
2022-09-14T05:13:21.405Z,100590.0
2022-09-14T05:18:21.408Z,100590.0
2022-09-14T05:23:21.414Z,100600.0
2022-09-14T05:28:21.412Z,100590.0
2022-09-14T05:33:21.419Z,100600.0
2022-09-14T05:38:21.415Z,100600.0
2022-09-14T05:43:21.418Z,100590.0
2022-09-14T05:48:21.430Z,100600.0
2022-09-14T05:53:21.429Z,100610.0
2022-09-14T05:58:21.431Z,100610.0
2022-09-14T06:03:21.433Z,100620.0
2022-09-14T06:08:21.436Z,100620.0
2022-09-14T06:13:21.441Z,100610.0
2022-09-14T06:18:21.443Z,100610.0
2022-09-14T06:23:21.442Z,100610.0
2022-09-14T06:28:21.454Z,100610.0
2022-09-14T06:33:21.454Z,100610.0
2022-09-14T06:38:21.462Z,100600.0
2022-09-14T06:43:21.461Z,100600.0
2022-09-14T06:48:21.460Z,100600.0
2022-09-14T06:53:21.464Z,100590.0
2022-09-14T06:58:21.461Z,100600.0
2022-09-14T07:03:21.469Z,100600.0
2022-09-14T07:08:21.467Z,100610.0
2022-09-14T07:13:21.477Z,100600.0
2022-09-14T07:18:21.481Z,100600.0
2022-09-14T07:23:21.479Z,100610.0
2022-09-14T07:28:21.485Z,100600.0
2022-09-14T07:33:21.491Z,100600.0
2022-09-14T07:38:41.464Z,100590.0
2022-09-14T07:43:21.491Z,100590.0
2022-09-14T07:48:21.500Z,100590.0
2022-09-14T07:53:21.500Z,100580.0
2022-09-14T07:58:21.501Z,100580.0
2022-09-14T08:03:21.506Z,100580.0
2022-09-14T08:08:21.501Z,100580.0
2022-09-14T08:13:21.508Z,100580.0
2022-09-14T08:18:21.522Z,100570.0
2022-09-14T08:23:21.529Z,100580.0
2022-09-14T08:28:21.530Z,100580.0
2022-09-14T08:33:21.524Z,100570.0
2022-09-14T08:38:21.528Z,100570.0
2022-09-14T08:43:21.529Z,100570.0
2022-09-14T08:48:21.525Z,100570.0
2022-09-14T08:53:21.539Z,100570.0
2022-09-14T08:58:21.533Z,100570.0
2022-09-14T09:03:21.536Z,100570.0
2022-09-14T09:08:21.776Z,100580.0
2022-09-14T09:13:21.636Z,100600.0
2022-09-14T09:18:21.548Z,100590.0
2022-09-14T09:23:21.657Z,100590.0
2022-09-14T09:28:21.556Z,100590.0
2022-09-14T09:33:21.567Z,100590.0
2022-09-14T09:38:21.598Z,100590.0
2022-09-14T09:43:33.554Z,100590.0
2022-09-14T09:48:21.561Z,100600.0
2022-09-14T09:53:21.570Z,100590.0
2022-09-14T09:58:21.578Z,100580.0
2022-09-14T10:03:21.575Z,100570.0
2022-09-14T10:08:21.576Z,100570.0
2022-09-14T10:13:21.583Z,100570.0
2022-09-14T10:18:21.588Z,100560.0
2022-09-14T10:23:21.592Z,100550.0
2022-09-14T10:28:21.590Z,100550.0
2022-09-14T10:33:21.589Z,100550.0
2022-09-14T10:38:21.606Z,100550.0
2022-09-14T10:43:21.603Z,100550.0
2022-09-14T10:48:21.599Z,100560.0
2022-09-14T10:53:21.627Z,100550.0
2022-09-14T10:58:24.371Z,100560.0
2022-09-14T11:03:21.624Z,100560.0
2022-09-14T11:08:21.609Z,100560.0
2022-09-14T11:13:21.766Z,100560.0
2022-09-14T11:18:21.637Z,100560.0
2022-09-14T11:23:21.696Z,100560.0
2022-09-14T11:28:21.629Z,100560.0
2022-09-14T11:33:21.634Z,100550.0
2022-09-14T11:38:21.638Z,100560.0
2022-09-14T11:43:21.638Z,100550.0
2022-09-14T11:48:41.809Z,100550.0
2022-09-14T11:53:21.645Z,100560.0
2022-09-14T11:58:21.642Z,100560.0
2022-09-14T12:03:21.697Z,100550.0
2022-09-14T12:08:21.646Z,100550.0
2022-09-14T12:13:21.660Z,100550.0
2022-09-14T12:18:21.645Z,100550.0
2022-09-14T12:23:21.654Z,100540.0
2022-09-14T12:28:21.661Z,100540.0
2022-09-14T12:33:21.663Z,100540.0
2022-09-14T12:38:21.660Z,100530.0
2022-09-14T12:43:21.666Z,100530.0
2022-09-14T12:48:21.673Z,100520.0
2022-09-14T12:53:21.679Z,100520.0
2022-09-14T12:58:21.672Z,100510.0
2022-09-14T13:03:21.672Z,100510.0
2022-09-14T13:08:21.679Z,100490.0
2022-09-14T13:13:21.676Z,100510.0
2022-09-14T13:18:21.683Z,100520.0
2022-09-14T13:23:21.691Z,100510.0
2022-09-14T13:28:21.695Z,100520.0
2022-09-14T13:33:21.694Z,100510.0
2022-09-14T13:38:21.690Z,100510.0
2022-09-14T13:43:21.700Z,100500.0
2022-09-14T13:48:21.699Z,100490.0
2022-09-14T13:53:21.704Z,100500.0
2022-09-14T13:58:21.701Z,100490.0
2022-09-14T14:03:21.708Z,100490.0
2022-09-14T14:08:21.712Z,100480.0
2022-09-14T14:13:21.884Z,100460.0
2022-09-14T14:18:21.715Z,100460.0
2022-09-14T14:23:21.719Z,100460.0
2022-09-14T14:28:21.724Z,100460.0
2022-09-14T14:33:21.729Z,100470.0
2022-09-14T14:38:21.735Z,100470.0
2022-09-14T14:43:21.739Z,100470.0
2022-09-14T14:48:21.736Z,100480.0
2022-09-14T14:53:21.738Z,100470.0
2022-09-14T14:58:21.743Z,100460.0
2022-09-14T15:03:21.851Z,100450.0
2022-09-14T15:08:21.753Z,100450.0
2022-09-14T15:13:21.751Z,100440.0
2022-09-14T15:18:21.755Z,100450.0
2022-09-14T15:23:21.762Z,100460.0
2022-09-14T15:28:21.760Z,100460.0
2022-09-14T15:33:21.765Z,100450.0
2022-09-14T15:38:21.772Z,100440.0
2022-09-14T15:43:21.770Z,100440.0
2022-09-14T15:48:21.769Z,100440.0
2022-09-14T15:53:21.779Z,100440.0
2022-09-14T15:58:21.781Z,100450.0
2022-09-14T16:03:21.785Z,100460.0
2022-09-14T16:08:21.814Z,100470.0
2022-09-14T16:13:21.795Z,100470.0
2022-09-14T16:18:21.794Z,100470.0
2022-09-14T16:23:21.806Z,100480.0
2022-09-14T16:28:21.802Z,100470.0
2022-09-14T16:33:21.828Z,100470.0
2022-09-14T16:38:21.820Z,100480.0
2022-09-14T16:43:21.812Z,100480.0
2022-09-14T16:48:21.809Z,100480.0
2022-09-14T16:53:21.812Z,100490.0
2022-09-14T16:58:21.818Z,100490.0
2022-09-14T17:03:21.826Z,100490.0
2022-09-14T17:08:21.828Z,100480.0
2022-09-14T17:13:21.834Z,100490.0
2022-09-14T17:18:21.829Z,100490.0
2022-09-14T17:23:21.821Z,100500.0
2022-09-14T17:28:21.828Z,100510.0
2022-09-14T17:33:21.842Z,100510.0
2022-09-14T17:38:21.838Z,100510.0
2022-09-14T17:43:21.840Z,100510.0
2022-09-14T17:48:21.839Z,100490.0
2022-09-14T17:53:21.848Z,100490.0
2022-09-14T17:58:21.851Z,100490.0
2022-09-14T18:03:21.999Z,100490.0
2022-09-14T18:08:21.862Z,100480.0
2022-09-14T18:13:21.855Z,100490.0
2022-09-14T18:18:21.855Z,100490.0
2022-09-14T18:23:21.859Z,100490.0
2022-09-14T18:28:21.856Z,100500.0
2022-09-14T18:33:21.869Z,100500.0
2022-09-14T18:38:21.865Z,100500.0
2022-09-14T18:43:21.862Z,100510.0
2022-09-14T18:48:21.874Z,100530.0
2022-09-14T18:53:21.872Z,100520.0
2022-09-14T18:58:21.875Z,100520.0
2022-09-14T19:03:21.876Z,100530.0
2022-09-14T19:08:21.881Z,100530.0
2022-09-14T19:13:21.883Z,100530.0
2022-09-14T19:18:21.883Z,100530.0
2022-09-14T19:23:21.884Z,100530.0
2022-09-14T19:28:21.886Z,100550.0
2022-09-14T19:33:21.894Z,100560.0
2022-09-14T19:38:21.891Z,100570.0
2022-09-14T19:43:21.896Z,100560.0
2022-09-14T19:48:21.897Z,100570.0
2022-09-14T19:53:21.914Z,100570.0
2022-09-14T19:58:21.905Z,100560.0
2022-09-14T20:03:21.903Z,100580.0
2022-09-14T20:08:21.909Z,100580.0
2022-09-14T20:13:21.919Z,100580.0
2022-09-14T20:18:21.917Z,100590.0
2022-09-14T20:23:21.920Z,100580.0
2022-09-14T20:28:21.924Z,100590.0
2022-09-14T20:33:21.915Z,100580.0
2022-09-14T20:38:21.916Z,100600.0
2022-09-14T20:43:21.921Z,100610.0
2022-09-14T20:48:21.928Z,100590.0
2022-09-14T20:53:21.957Z,100600.0
2022-09-14T20:58:21.933Z,100610.0
2022-09-14T21:03:21.941Z,100610.0
2022-09-14T21:08:21.937Z,100600.0
2022-09-14T21:13:21.946Z,100610.0
2022-09-14T21:18:21.946Z,100620.0
2022-09-14T21:23:21.951Z,100620.0
2022-09-14T21:28:21.953Z,100630.0
2022-09-14T21:33:21.957Z,100620.0
2022-09-14T21:38:21.958Z,100620.0
2022-09-14T21:43:21.965Z,100630.0
2022-09-14T21:48:21.959Z,100620.0
2022-09-14T21:53:21.964Z,100620.0
2022-09-14T21:58:21.970Z,100620.0
2022-09-14T22:03:21.984Z,100630.0
2022-09-14T22:08:21.971Z,100640.0
2022-09-14T22:13:21.983Z,100630.0
2022-09-14T22:18:21.984Z,100630.0
2022-09-14T22:23:21.985Z,100640.0
2022-09-14T22:28:21.990Z,100640.0
2022-09-14T22:33:21.995Z,100650.0
2022-09-14T22:38:21.992Z,100660.0
2022-09-14T22:43:21.995Z,100650.0
2022-09-14T22:48:21.995Z,100650.0
2022-09-14T22:53:21.998Z,100650.0
2022-09-14T22:58:22.002Z,100640.0
2022-09-14T23:03:22.017Z,100650.0
2022-09-14T23:08:22.021Z,100650.0
2022-09-14T23:13:22.025Z,100640.0
2022-09-14T23:18:22.012Z,100640.0
2022-09-14T23:23:22.015Z,100650.0
2022-09-14T23:28:22.021Z,100660.0
2022-09-14T23:33:22.018Z,100650.0
2022-09-14T23:38:22.023Z,100640.0
2022-09-14T23:43:22.026Z,100630.0
2022-09-14T23:48:22.049Z,100630.0
2022-09-14T23:53:22.032Z,100630.0
2022-09-14T23:58:22.035Z,100640.0
